sensor_id;sensor_type;location;lat;lon;timestamp;temperature;humidity
19359;DHT22;9815;52.334;20.890;2023-08-01T00:01:57;19.20;99.90
19359;DHT22;9815;52.334;20.890;2023-08-01T00:04:25;19.20;99.90
19359;DHT22;9815;52.334;20.890;2023-08-01T00:06:53;19.20;99.90
19359;DHT22;9815;52.334;20.890;2023-08-01T00:09:22;19.20;99.90
19359;DHT22;9815;52.334;20.890;2023-08-01T00:11:50;19.20;99.90
19359;DHT22;9815;52.334;20.890;2023-08-01T00:14:19;19.20;99.90
19359;DHT22;9815;52.334;20.890;2023-08-01T00:16:48;19.20;99.90
19359;DHT22;9815;52.334;20.890;2023-08-01T00:19:17;19.20;99.90
19359;DHT22;9815;52.334;20.890;2023-08-01T00:21:45;19.20;99.90
19359;DHT22;9815;52.334;20.890;2023-08-01T00:24:14;19.20;99.90
19359;DHT22;9815;52.334;20.890;2023-08-01T00:26:42;19.20;99.90
19359;DHT22;9815;52.334;20.890;2023-08-01T00:29:10;19.20;99.90
19359;DHT22;9815;52.334;20.890;2023-08-01T00:31:38;19.20;99.90
19359;DHT22;9815;52.334;20.890;2023-08-01T00:34:08;19.20;99.90
19359;DHT22;9815;52.334;20.890;2023-08-01T00:36:36;19.20;99.90
19359;DHT22;9815;52.334;20.890;2023-08-01T00:39:05;19.10;99.90
19359;DHT22;9815;52.334;20.890;2023-08-01T00:41:33;19.10;99.90
19359;DHT22;9815;52.334;20.890;2023-08-01T00:44:02;19.10;99.90
19359;DHT22;9815;52.334;20.890;2023-08-01T00:46:31;19.10;99.90
19359;DHT22;9815;52.334;20.890;2023-08-01T00:48:59;19.20;99.90
19359;DHT22;9815;52.334;20.890;2023-08-01T00:51:30;19.10;99.90
19359;DHT22;9815;52.334;20.890;2023-08-01T00:54:00;19.20;99.90
19359;DHT22;9815;52.334;20.890;2023-08-01T00:56:29;19.10;99.90
19359;DHT22;9815;52.334;20.890;2023-08-01T00:58:57;19.10;99.90
19359;DHT22;9815;52.334;20.890;2023-08-01T01:01:26;19.10;99.90
19359;DHT22;9815;52.334;20.890;2023-08-01T01:03:56;19.10;99.90
19359;DHT22;9815;52.334;20.890;2023-08-01T01:06:27;19.10;99.90
19359;DHT22;9815;52.334;20.890;2023-08-01T01:08:58;19.10;99.90
19359;DHT22;9815;52.334;20.890;2023-08-01T01:11:26;19.20;99.90
19359;DHT22;9815;52.334;20.890;2023-08-01T01:13:54;19.20;99.90
19359;DHT22;9815;52.334;20.890;2023-08-01T01:16:23;19.20;99.90
19359;DHT22;9815;52.334;20.890;2023-08-01T01:18:51;19.20;99.90
19359;DHT22;9815;52.334;20.890;2023-08-01T01:21:26;19.10;99.90
19359;DHT22;9815;52.334;20.890;2023-08-01T01:23:55;19.10;99.90
19359;DHT22;9815;52.334;20.890;2023-08-01T01:26:24;19.10;99.90
19359;DHT22;9815;52.334;20.890;2023-08-01T01:28:56;19.10;99.90
19359;DHT22;9815;52.334;20.890;2023-08-01T01:31:24;19.10;99.90
19359;DHT22;9815;52.334;20.890;2023-08-01T01:33:53;19.20;99.90
19359;DHT22;9815;52.334;20.890;2023-08-01T01:36:22;19.10;99.90
19359;DHT22;9815;52.334;20.890;2023-08-01T01:38:52;19.10;99.90
19359;DHT22;9815;52.334;20.890;2023-08-01T01:41:20;19.10;99.90
19359;DHT22;9815;52.334;20.890;2023-08-01T01:43:49;19.10;99.90
19359;DHT22;9815;52.334;20.890;2023-08-01T01:46:17;19.10;99.90
19359;DHT22;9815;52.334;20.890;2023-08-01T01:48:46;19.10;99.90
19359;DHT22;9815;52.334;20.890;2023-08-01T01:51:14;19.10;99.90
19359;DHT22;9815;52.334;20.890;2023-08-01T01:53:43;19.10;99.90
19359;DHT22;9815;52.334;20.890;2023-08-01T01:56:13;19.10;99.90
19359;DHT22;9815;52.334;20.890;2023-08-01T01:58:41;19.00;99.90
19359;DHT22;9815;52.334;20.890;2023-08-01T02:01:10;19.00;99.90
19359;DHT22;9815;52.334;20.890;2023-08-01T02:03:38;19.00;99.90
19359;DHT22;9815;52.334;20.890;2023-08-01T02:06:07;19.00;99.90
19359;DHT22;9815;52.334;20.890;2023-08-01T02:08:35;19.00;99.90
19359;DHT22;9815;52.334;20.890;2023-08-01T02:11:03;18.90;99.90
19359;DHT22;9815;52.334;20.890;2023-08-01T02:13:33;18.90;99.90
19359;DHT22;9815;52.334;20.890;2023-08-01T02:16:02;18.90;99.90
19359;DHT22;9815;52.334;20.890;2023-08-01T02:18:30;18.90;99.90
19359;DHT22;9815;52.334;20.890;2023-08-01T02:20:59;18.80;99.90
19359;DHT22;9815;52.334;20.890;2023-08-01T02:23:28;18.80;99.90
19359;DHT22;9815;52.334;20.890;2023-08-01T02:25:56;18.70;99.90
19359;DHT22;9815;52.334;20.890;2023-08-01T02:28:25;18.70;99.90
19359;DHT22;9815;52.334;20.890;2023-08-01T02:30:54;18.70;99.90
19359;DHT22;9815;52.334;20.890;2023-08-01T02:33:23;18.70;99.90
19359;DHT22;9815;52.334;20.890;2023-08-01T02:35:51;18.70;99.90
19359;DHT22;9815;52.334;20.890;2023-08-01T02:38:19;18.70;99.90
19359;DHT22;9815;52.334;20.890;2023-08-01T02:40:47;18.70;99.90
19359;DHT22;9815;52.334;20.890;2023-08-01T02:43:16;18.70;99.90
19359;DHT22;9815;52.334;20.890;2023-08-01T02:45:44;18.70;99.90
19359;DHT22;9815;52.334;20.890;2023-08-01T02:48:14;18.60;99.90
19359;DHT22;9815;52.334;20.890;2023-08-01T02:50:43;18.70;99.90
19359;DHT22;9815;52.334;20.890;2023-08-01T02:53:11;18.60;99.90
19359;DHT22;9815;52.334;20.890;2023-08-01T02:55:39;18.70;99.90
19359;DHT22;9815;52.334;20.890;2023-08-01T02:58:08;18.70;99.90
19359;DHT22;9815;52.334;20.890;2023-08-01T03:00:38;18.70;99.90
19359;DHT22;9815;52.334;20.890;2023-08-01T03:03:07;18.70;99.90
19359;DHT22;9815;52.334;20.890;2023-08-01T03:05:37;18.80;99.90
19359;DHT22;9815;52.334;20.890;2023-08-01T03:08:05;18.80;99.90
19359;DHT22;9815;52.334;20.890;2023-08-01T03:10:34;18.80;99.90
19359;DHT22;9815;52.334;20.890;2023-08-01T03:13:03;18.90;99.90
19359;DHT22;9815;52.334;20.890;2023-08-01T03:15:32;18.90;99.90
19359;DHT22;9815;52.334;20.890;2023-08-01T03:18:00;18.90;99.90
19359;DHT22;9815;52.334;20.890;2023-08-01T03:20:28;19.00;99.90
19359;DHT22;9815;52.334;20.890;2023-08-01T03:22:58;19.00;99.90
19359;DHT22;9815;52.334;20.890;2023-08-01T03:25:26;19.00;99.90
19359;DHT22;9815;52.334;20.890;2023-08-01T03:27:55;19.10;99.90
19359;DHT22;9815;52.334;20.890;2023-08-01T03:30:24;19.10;99.90
19359;DHT22;9815;52.334;20.890;2023-08-01T03:32:54;19.10;99.90
19359;DHT22;9815;52.334;20.890;2023-08-01T03:35:22;19.10;99.90
19359;DHT22;9815;52.334;20.890;2023-08-01T03:37:51;19.10;99.90
19359;DHT22;9815;52.334;20.890;2023-08-01T03:40:21;19.10;99.90
19359;DHT22;9815;52.334;20.890;2023-08-01T03:42:49;19.10;99.90
19359;DHT22;9815;52.334;20.890;2023-08-01T03:45:18;19.10;99.90
19359;DHT22;9815;52.334;20.890;2023-08-01T03:47:46;19.20;99.90
19359;DHT22;9815;52.334;20.890;2023-08-01T03:50:15;19.20;99.90
19359;DHT22;9815;52.334;20.890;2023-08-01T03:52:43;19.20;99.90
19359;DHT22;9815;52.334;20.890;2023-08-01T03:55:12;19.20;99.90
19359;DHT22;9815;52.334;20.890;2023-08-01T03:57:43;19.30;99.90
19359;DHT22;9815;52.334;20.890;2023-08-01T04:00:11;19.30;99.90
19359;DHT22;9815;52.334;20.890;2023-08-01T04:02:43;19.30;99.90
19359;DHT22;9815;52.334;20.890;2023-08-01T04:05:15;19.40;99.90
19359;DHT22;9815;52.334;20.890;2023-08-01T04:07:43;19.40;99.90
19359;DHT22;9815;52.334;20.890;2023-08-01T04:10:11;19.40;99.90
19359;DHT22;9815;52.334;20.890;2023-08-01T04:12:40;19.40;99.90
19359;DHT22;9815;52.334;20.890;2023-08-01T04:15:10;19.40;99.90
19359;DHT22;9815;52.334;20.890;2023-08-01T04:17:39;19.40;99.90
19359;DHT22;9815;52.334;20.890;2023-08-01T04:20:07;19.50;99.90
19359;DHT22;9815;52.334;20.890;2023-08-01T04:22:36;19.50;99.90
19359;DHT22;9815;52.334;20.890;2023-08-01T04:25:05;19.50;99.90
19359;DHT22;9815;52.334;20.890;2023-08-01T04:27:33;19.50;99.90
19359;DHT22;9815;52.334;20.890;2023-08-01T04:30:02;19.60;99.90
19359;DHT22;9815;52.334;20.890;2023-08-01T04:32:31;19.60;99.90
19359;DHT22;9815;52.334;20.890;2023-08-01T04:35:00;19.70;99.90
19359;DHT22;9815;52.334;20.890;2023-08-01T04:37:28;19.70;99.90
19359;DHT22;9815;52.334;20.890;2023-08-01T04:39:56;19.70;99.90
19359;DHT22;9815;52.334;20.890;2023-08-01T04:42:25;19.70;99.90
19359;DHT22;9815;52.334;20.890;2023-08-01T04:44:54;19.70;99.90
19359;DHT22;9815;52.334;20.890;2023-08-01T04:47:22;19.60;99.90
19359;DHT22;9815;52.334;20.890;2023-08-01T04:49:52;19.60;99.90
19359;DHT22;9815;52.334;20.890;2023-08-01T04:52:20;19.50;99.90
19359;DHT22;9815;52.334;20.890;2023-08-01T04:54:48;19.50;99.90
19359;DHT22;9815;52.334;20.890;2023-08-01T04:57:16;19.50;99.90
19359;DHT22;9815;52.334;20.890;2023-08-01T04:59:45;19.50;99.90
19359;DHT22;9815;52.334;20.890;2023-08-01T05:02:13;19.60;99.90
19359;DHT22;9815;52.334;20.890;2023-08-01T05:04:41;19.90;99.90
19359;DHT22;9815;52.334;20.890;2023-08-01T05:07:11;20.10;99.90
19359;DHT22;9815;52.334;20.890;2023-08-01T05:09:39;20.30;99.90
19359;DHT22;9815;52.334;20.890;2023-08-01T05:12:08;20.50;95.70
19359;DHT22;9815;52.334;20.890;2023-08-01T05:14:36;20.70;93.00
19359;DHT22;9815;52.334;20.890;2023-08-01T05:17:05;20.80;90.00
19359;DHT22;9815;52.334;20.890;2023-08-01T05:19:33;20.90;85.10
19359;DHT22;9815;52.334;20.890;2023-08-01T05:22:02;20.90;87.60
19359;DHT22;9815;52.334;20.890;2023-08-01T05:24:31;20.90;83.40
19359;DHT22;9815;52.334;20.890;2023-08-01T05:27:00;20.90;89.10
19359;DHT22;9815;52.334;20.890;2023-08-01T05:29:28;20.80;90.50
19359;DHT22;9815;52.334;20.890;2023-08-01T05:31:56;20.80;92.00
19359;DHT22;9815;52.334;20.890;2023-08-01T05:34:25;20.80;90.30
19359;DHT22;9815;52.334;20.890;2023-08-01T05:36:53;20.70;82.20
19359;DHT22;9815;52.334;20.890;2023-08-01T05:39:21;20.70;85.70
19359;DHT22;9815;52.334;20.890;2023-08-01T05:41:51;20.80;86.80
19359;DHT22;9815;52.334;20.890;2023-08-01T05:44:19;20.80;91.90
19359;DHT22;9815;52.334;20.890;2023-08-01T05:46:47;20.90;87.40
19359;DHT22;9815;52.334;20.890;2023-08-01T05:49:16;20.90;89.20
19359;DHT22;9815;52.334;20.890;2023-08-01T05:51:44;21.00;85.90
19359;DHT22;9815;52.334;20.890;2023-08-01T05:54:13;21.10;79.70
19359;DHT22;9815;52.334;20.890;2023-08-01T05:56:41;21.10;81.50
19359;DHT22;9815;52.334;20.890;2023-08-01T05:59:12;21.10;85.10
19359;DHT22;9815;52.334;20.890;2023-08-01T06:01:41;21.20;81.70
19359;DHT22;9815;52.334;20.890;2023-08-01T06:04:10;21.20;83.10
19359;DHT22;9815;52.334;20.890;2023-08-01T06:06:39;21.20;86.30
19359;DHT22;9815;52.334;20.890;2023-08-01T06:09:07;21.30;86.10
19359;DHT22;9815;52.334;20.890;2023-08-01T06:11:36;21.20;77.00
19359;DHT22;9815;52.334;20.890;2023-08-01T06:14:04;21.20;85.20
19359;DHT22;9815;52.334;20.890;2023-08-01T06:16:34;21.20;88.40
19359;DHT22;9815;52.334;20.890;2023-08-01T06:19:02;21.30;84.70
19359;DHT22;9815;52.334;20.890;2023-08-01T06:21:31;21.40;78.80
19359;DHT22;9815;52.334;20.890;2023-08-01T06:23:59;21.50;72.60
19359;DHT22;9815;52.334;20.890;2023-08-01T06:26:27;21.60;77.70
19359;DHT22;9815;52.334;20.890;2023-08-01T06:28:56;21.80;77.50
19359;DHT22;9815;52.334;20.890;2023-08-01T06:31:24;21.90;73.60
19359;DHT22;9815;52.334;20.890;2023-08-01T06:33:54;21.90;67.70
19359;DHT22;9815;52.334;20.890;2023-08-01T06:36:22;22.10;66.60
19359;DHT22;9815;52.334;20.890;2023-08-01T06:38:51;22.30;63.20
19359;DHT22;9815;52.334;20.890;2023-08-01T06:41:19;22.30;60.80
19359;DHT22;9815;52.334;20.890;2023-08-01T06:43:51;22.40;60.80
19359;DHT22;9815;52.334;20.890;2023-08-01T06:46:19;22.40;60.70
19359;DHT22;9815;52.334;20.890;2023-08-01T06:48:50;22.40;58.10
19359;DHT22;9815;52.334;20.890;2023-08-01T06:51:20;22.50;59.80
19359;DHT22;9815;52.334;20.890;2023-08-01T06:53:48;22.50;55.50
19359;DHT22;9815;52.334;20.890;2023-08-01T06:56:17;22.50;55.40
19359;DHT22;9815;52.334;20.890;2023-08-01T06:58:45;22.50;53.80
19359;DHT22;9815;52.334;20.890;2023-08-01T07:01:13;22.50;51.70
19359;DHT22;9815;52.334;20.890;2023-08-01T07:03:42;22.60;54.80
19359;DHT22;9815;52.334;20.890;2023-08-01T07:06:10;22.70;51.70
19359;DHT22;9815;52.334;20.890;2023-08-01T07:08:40;22.80;53.30
19359;DHT22;9815;52.334;20.890;2023-08-01T07:11:08;22.80;51.50
19359;DHT22;9815;52.334;20.890;2023-08-01T07:13:37;22.90;51.70
19359;DHT22;9815;52.334;20.890;2023-08-01T07:16:05;22.90;50.50
19359;DHT22;9815;52.334;20.890;2023-08-01T07:18:34;22.80;48.70
19359;DHT22;9815;52.334;20.890;2023-08-01T07:21:03;22.90;51.70
19359;DHT22;9815;52.334;20.890;2023-08-01T07:23:34;23.10;52.10
19359;DHT22;9815;52.334;20.890;2023-08-01T07:26:04;23.10;51.20
19359;DHT22;9815;52.334;20.890;2023-08-01T07:28:32;23.20;51.60
19359;DHT22;9815;52.334;20.890;2023-08-01T07:31:02;23.40;47.30
19359;DHT22;9815;52.334;20.890;2023-08-01T07:33:32;23.60;46.40
19359;DHT22;9815;52.334;20.890;2023-08-01T07:36:00;23.70;43.50
19359;DHT22;9815;52.334;20.890;2023-08-01T07:38:29;23.90;44.60
19359;DHT22;9815;52.334;20.890;2023-08-01T07:41:04;24.00;40.70
19359;DHT22;9815;52.334;20.890;2023-08-01T07:43:32;24.00;42.30
19359;DHT22;9815;52.334;20.890;2023-08-01T07:46:00;24.10;43.70
19359;DHT22;9815;52.334;20.890;2023-08-01T07:48:29;24.10;42.00
19359;DHT22;9815;52.334;20.890;2023-08-01T07:50:57;24.10;40.40
19359;DHT22;9815;52.334;20.890;2023-08-01T07:53:26;24.00;41.60
19359;DHT22;9815;52.334;20.890;2023-08-01T07:55:56;23.90;42.60
19359;DHT22;9815;52.334;20.890;2023-08-01T07:58:25;23.80;45.40
19359;DHT22;9815;52.334;20.890;2023-08-01T08:00:54;23.70;43.00
19359;DHT22;9815;52.334;20.890;2023-08-01T08:03:22;23.80;43.10
19359;DHT22;9815;52.334;20.890;2023-08-01T08:05:51;23.80;42.50
19359;DHT22;9815;52.334;20.890;2023-08-01T08:08:19;23.70;41.20
19359;DHT22;9815;52.334;20.890;2023-08-01T08:10:48;23.70;42.60
19359;DHT22;9815;52.334;20.890;2023-08-01T08:13:16;23.70;43.40
19359;DHT22;9815;52.334;20.890;2023-08-01T08:15:46;23.60;45.40
19359;DHT22;9815;52.334;20.890;2023-08-01T08:18:14;23.50;43.40
19359;DHT22;9815;52.334;20.890;2023-08-01T08:20:46;23.40;44.30
19359;DHT22;9815;52.334;20.890;2023-08-01T08:23:14;23.30;44.70
19359;DHT22;9815;52.334;20.890;2023-08-01T08:25:43;23.30;45.70
19359;DHT22;9815;52.334;20.890;2023-08-01T08:28:14;23.30;46.60
19359;DHT22;9815;52.334;20.890;2023-08-01T08:30:42;23.30;45.80
19359;DHT22;9815;52.334;20.890;2023-08-01T08:33:19;23.30;46.30
19359;DHT22;9815;52.334;20.890;2023-08-01T08:35:48;23.30;47.80
19359;DHT22;9815;52.334;20.890;2023-08-01T08:38:17;23.30;46.60
19359;DHT22;9815;52.334;20.890;2023-08-01T08:40:52;23.40;50.20
19359;DHT22;9815;52.334;20.890;2023-08-01T08:43:26;23.40;50.20
19359;DHT22;9815;52.334;20.890;2023-08-01T08:45:57;23.40;51.80
19359;DHT22;9815;52.334;20.890;2023-08-01T08:48:30;23.50;50.30
19359;DHT22;9815;52.334;20.890;2023-08-01T08:50:59;23.50;50.20
19359;DHT22;9815;52.334;20.890;2023-08-01T08:53:28;23.50;50.40
19359;DHT22;9815;52.334;20.890;2023-08-01T08:55:59;23.60;47.10
19359;DHT22;9815;52.334;20.890;2023-08-01T08:58:29;23.60;48.20
19359;DHT22;9815;52.334;20.890;2023-08-01T09:00:58;23.60;48.70
19359;DHT22;9815;52.334;20.890;2023-08-01T09:03:30;23.50;49.10
19359;DHT22;9815;52.334;20.890;2023-08-01T09:06:03;23.50;49.70
19359;DHT22;9815;52.334;20.890;2023-08-01T09:08:35;23.60;50.90
19359;DHT22;9815;52.334;20.890;2023-08-01T09:11:04;23.70;51.90
19359;DHT22;9815;52.334;20.890;2023-08-01T09:13:32;23.90;45.90
19359;DHT22;9815;52.334;20.890;2023-08-01T09:16:02;24.00;44.80
19359;DHT22;9815;52.334;20.890;2023-08-01T09:18:46;24.10;46.90
19359;DHT22;9815;52.334;20.890;2023-08-01T09:21:17;24.20;45.60
19359;DHT22;9815;52.334;20.890;2023-08-01T09:23:45;24.20;43.90
19359;DHT22;9815;52.334;20.890;2023-08-01T09:26:14;24.30;43.50
19359;DHT22;9815;52.334;20.890;2023-08-01T09:28:42;24.40;42.80
19359;DHT22;9815;52.334;20.890;2023-08-01T09:31:11;24.60;43.10
19359;DHT22;9815;52.334;20.890;2023-08-01T09:33:41;24.60;41.00
19359;DHT22;9815;52.334;20.890;2023-08-01T09:36:10;24.60;41.20
19359;DHT22;9815;52.334;20.890;2023-08-01T09:38:38;24.60;42.40
19359;DHT22;9815;52.334;20.890;2023-08-01T09:41:06;24.60;44.90
19359;DHT22;9815;52.334;20.890;2023-08-01T09:43:45;24.60;42.30
19359;DHT22;9815;52.334;20.890;2023-08-01T09:46:15;24.60;41.30
19359;DHT22;9815;52.334;20.890;2023-08-01T09:48:44;24.60;39.20
19359;DHT22;9815;52.334;20.890;2023-08-01T09:51:14;24.60;42.40
19359;DHT22;9815;52.334;20.890;2023-08-01T09:53:49;24.60;42.80
19359;DHT22;9815;52.334;20.890;2023-08-01T09:56:22;24.60;42.40
19359;DHT22;9815;52.334;20.890;2023-08-01T09:58:52;24.40;41.50
19359;DHT22;9815;52.334;20.890;2023-08-01T10:01:21;24.30;42.30
19359;DHT22;9815;52.334;20.890;2023-08-01T10:03:52;24.20;44.60
19359;DHT22;9815;52.334;20.890;2023-08-01T10:06:22;24.10;44.50
19359;DHT22;9815;52.334;20.890;2023-08-01T10:08:57;24.00;45.80
19359;DHT22;9815;52.334;20.890;2023-08-01T10:11:33;23.80;50.80
19359;DHT22;9815;52.334;20.890;2023-08-01T10:14:03;23.70;58.10
19359;DHT22;9815;52.334;20.890;2023-08-01T10:16:32;23.50;67.00
19359;DHT22;9815;52.334;20.890;2023-08-01T10:19:06;23.30;73.90
19359;DHT22;9815;52.334;20.890;2023-08-01T10:21:37;23.10;81.00
19359;DHT22;9815;52.334;20.890;2023-08-01T10:24:06;22.80;91.80
19359;DHT22;9815;52.334;20.890;2023-08-01T10:26:35;22.70;98.80
19359;DHT22;9815;52.334;20.890;2023-08-01T10:29:03;22.50;99.90
19359;DHT22;9815;52.334;20.890;2023-08-01T10:31:32;22.30;99.90
19359;DHT22;9815;52.334;20.890;2023-08-01T10:34:08;22.00;99.90
19359;DHT22;9815;52.334;20.890;2023-08-01T10:36:53;21.90;99.90
19359;DHT22;9815;52.334;20.890;2023-08-01T10:39:24;21.70;99.90
19359;DHT22;9815;52.334;20.890;2023-08-01T10:41:57;21.60;99.90
19359;DHT22;9815;52.334;20.890;2023-08-01T10:44:26;21.60;99.90
19359;DHT22;9815;52.334;20.890;2023-08-01T10:46:56;21.50;99.90
19359;DHT22;9815;52.334;20.890;2023-08-01T10:49:37;21.40;99.90
19359;DHT22;9815;52.334;20.890;2023-08-01T10:52:16;21.40;99.90
19359;DHT22;9815;52.334;20.890;2023-08-01T10:54:46;21.40;99.90
19359;DHT22;9815;52.334;20.890;2023-08-01T10:57:17;21.40;99.90
19359;DHT22;9815;52.334;20.890;2023-08-01T10:59:46;21.40;99.90
19359;DHT22;9815;52.334;20.890;2023-08-01T11:02:20;21.40;99.90
19359;DHT22;9815;52.334;20.890;2023-08-01T11:04:57;21.40;99.90
19359;DHT22;9815;52.334;20.890;2023-08-01T11:07:26;21.30;99.90
19359;DHT22;9815;52.334;20.890;2023-08-01T11:10:06;21.30;99.90
19359;DHT22;9815;52.334;20.890;2023-08-01T11:12:36;21.30;99.90
19359;DHT22;9815;52.334;20.890;2023-08-01T11:15:06;21.40;99.90
19359;DHT22;9815;52.334;20.890;2023-08-01T11:17:36;21.50;99.90
19359;DHT22;9815;52.334;20.890;2023-08-01T11:20:08;21.70;99.90
19359;DHT22;9815;52.334;20.890;2023-08-01T11:22:38;21.90;99.90
19359;DHT22;9815;52.334;20.890;2023-08-01T11:25:16;22.20;99.90
19359;DHT22;9815;52.334;20.890;2023-08-01T11:27:44;22.30;99.90
19359;DHT22;9815;52.334;20.890;2023-08-01T11:30:13;22.40;99.90
19359;DHT22;9815;52.334;20.890;2023-08-01T11:32:41;22.50;99.90
19359;DHT22;9815;52.334;20.890;2023-08-01T11:35:17;22.40;99.90
19359;DHT22;9815;52.334;20.890;2023-08-01T11:37:45;22.40;99.90
19359;DHT22;9815;52.334;20.890;2023-08-01T11:40:14;22.40;99.90
19359;DHT22;9815;52.334;20.890;2023-08-01T11:42:43;22.40;99.90
19359;DHT22;9815;52.334;20.890;2023-08-01T11:45:18;22.40;99.90
19359;DHT22;9815;52.334;20.890;2023-08-01T11:47:47;22.50;99.90
19359;DHT22;9815;52.334;20.890;2023-08-01T11:50:22;22.60;99.90
19359;DHT22;9815;52.334;20.890;2023-08-01T11:52:51;22.60;99.90
19359;DHT22;9815;52.334;20.890;2023-08-01T11:55:27;22.70;99.90
19359;DHT22;9815;52.334;20.890;2023-08-01T11:57:57;22.80;99.90
19359;DHT22;9815;52.334;20.890;2023-08-01T12:00:27;22.90;99.90
19359;DHT22;9815;52.334;20.890;2023-08-01T12:03:06;23.10;99.90
19359;DHT22;9815;52.334;20.890;2023-08-01T12:05:41;23.20;99.90
19359;DHT22;9815;52.334;20.890;2023-08-01T12:08:13;23.20;99.90
19359;DHT22;9815;52.334;20.890;2023-08-01T12:10:43;23.20;99.90
19359;DHT22;9815;52.334;20.890;2023-08-01T12:13:22;23.10;99.90
19359;DHT22;9815;52.334;20.890;2023-08-01T12:15:51;22.90;99.90
19359;DHT22;9815;52.334;20.890;2023-08-01T12:18:21;22.80;99.90
19359;DHT22;9815;52.334;20.890;2023-08-01T12:21:11;22.90;99.90
19359;DHT22;9815;52.334;20.890;2023-08-01T12:23:40;22.80;99.90
19359;DHT22;9815;52.334;20.890;2023-08-01T12:26:08;22.80;99.90
19359;DHT22;9815;52.334;20.890;2023-08-01T12:28:36;22.90;99.90
19359;DHT22;9815;52.334;20.890;2023-08-01T12:31:05;22.90;99.90
19359;DHT22;9815;52.334;20.890;2023-08-01T12:33:33;22.90;99.90
19359;DHT22;9815;52.334;20.890;2023-08-01T12:36:02;23.10;99.90
19359;DHT22;9815;52.334;20.890;2023-08-01T12:38:32;23.00;99.90
19359;DHT22;9815;52.334;20.890;2023-08-01T12:41:01;22.80;99.90
19359;DHT22;9815;52.334;20.890;2023-08-01T12:43:29;22.80;99.90
19359;DHT22;9815;52.334;20.890;2023-08-01T12:45:58;22.80;99.90
19359;DHT22;9815;52.334;20.890;2023-08-01T12:48:27;22.80;99.90
19359;DHT22;9815;52.334;20.890;2023-08-01T12:50:56;22.80;99.90
19359;DHT22;9815;52.334;20.890;2023-08-01T12:53:26;22.80;99.90
19359;DHT22;9815;52.334;20.890;2023-08-01T12:56:03;22.80;99.90
19359;DHT22;9815;52.334;20.890;2023-08-01T12:58:32;22.90;99.90
19359;DHT22;9815;52.334;20.890;2023-08-01T13:01:02;22.90;99.90
19359;DHT22;9815;52.334;20.890;2023-08-01T13:03:31;22.90;99.90
19359;DHT22;9815;52.334;20.890;2023-08-01T13:05:59;23.10;99.90
19359;DHT22;9815;52.334;20.890;2023-08-01T13:08:28;23.20;99.90
19359;DHT22;9815;52.334;20.890;2023-08-01T13:10:57;23.20;99.20
19359;DHT22;9815;52.334;20.890;2023-08-01T13:13:28;23.30;99.80
19359;DHT22;9815;52.334;20.890;2023-08-01T13:15:56;23.30;99.00
19359;DHT22;9815;52.334;20.890;2023-08-01T13:18:25;23.40;99.90
19359;DHT22;9815;52.334;20.890;2023-08-01T13:20:56;23.50;94.40
19359;DHT22;9815;52.334;20.890;2023-08-01T13:23:26;23.70;93.60
19359;DHT22;9815;52.334;20.890;2023-08-01T13:25:54;23.60;93.00
19359;DHT22;9815;52.334;20.890;2023-08-01T13:28:23;23.70;92.50
19359;DHT22;9815;52.334;20.890;2023-08-01T13:30:52;23.80;92.00
19359;DHT22;9815;52.334;20.890;2023-08-01T13:33:21;23.80;91.90
19359;DHT22;9815;52.334;20.890;2023-08-01T13:35:52;23.80;84.40
19359;DHT22;9815;52.334;20.890;2023-08-01T13:38:21;23.70;91.10
19359;DHT22;9815;52.334;20.890;2023-08-01T13:40:50;23.60;92.10
19359;DHT22;9815;52.334;20.890;2023-08-01T13:43:18;23.50;97.10
19359;DHT22;9815;52.334;20.890;2023-08-01T13:45:46;23.40;98.70
19359;DHT22;9815;52.334;20.890;2023-08-01T13:48:18;23.20;99.90
19359;DHT22;9815;52.334;20.890;2023-08-01T13:50:46;23.10;99.90
19359;DHT22;9815;52.334;20.890;2023-08-01T13:53:14;23.00;99.90
19359;DHT22;9815;52.334;20.890;2023-08-01T13:55:44;23.10;99.90
19359;DHT22;9815;52.334;20.890;2023-08-01T13:58:13;23.00;99.90
19359;DHT22;9815;52.334;20.890;2023-08-01T14:00:41;23.00;99.90
19359;DHT22;9815;52.334;20.890;2023-08-01T14:03:09;23.10;99.90
19359;DHT22;9815;52.334;20.890;2023-08-01T14:05:39;23.00;99.90
19359;DHT22;9815;52.334;20.890;2023-08-01T14:08:07;22.90;99.90
19359;DHT22;9815;52.334;20.890;2023-08-01T14:10:36;22.70;99.90
19359;DHT22;9815;52.334;20.890;2023-08-01T14:13:04;22.40;99.90
19359;DHT22;9815;52.334;20.890;2023-08-01T14:15:33;22.10;99.90
19359;DHT22;9815;52.334;20.890;2023-08-01T14:18:01;21.80;99.90
19359;DHT22;9815;52.334;20.890;2023-08-01T14:20:30;21.60;99.90
19359;DHT22;9815;52.334;20.890;2023-08-01T14:23:02;21.40;99.90
19359;DHT22;9815;52.334;20.890;2023-08-01T14:25:30;21.20;99.90
19359;DHT22;9815;52.334;20.890;2023-08-01T14:27:58;20.80;99.90
19359;DHT22;9815;52.334;20.890;2023-08-01T14:30:27;20.40;99.90
19359;DHT22;9815;52.334;20.890;2023-08-01T14:32:59;20.20;99.90
19359;DHT22;9815;52.334;20.890;2023-08-01T14:35:27;20.10;99.90
19359;DHT22;9815;52.334;20.890;2023-08-01T14:37:56;20.10;99.90
19359;DHT22;9815;52.334;20.890;2023-08-01T14:40:26;20.10;99.90
19359;DHT22;9815;52.334;20.890;2023-08-01T14:42:55;20.20;99.90
19359;DHT22;9815;52.334;20.890;2023-08-01T14:45:23;20.30;99.90
19359;DHT22;9815;52.334;20.890;2023-08-01T14:47:51;20.50;99.90
19359;DHT22;9815;52.334;20.890;2023-08-01T14:50:20;20.60;99.90
19359;DHT22;9815;52.334;20.890;2023-08-01T14:52:48;20.70;99.90
19359;DHT22;9815;52.334;20.890;2023-08-01T14:55:18;20.80;99.90
19359;DHT22;9815;52.334;20.890;2023-08-01T14:57:48;21.00;99.90
19359;DHT22;9815;52.334;20.890;2023-08-01T15:00:17;21.00;99.90
19359;DHT22;9815;52.334;20.890;2023-08-01T15:02:45;21.10;99.90
19359;DHT22;9815;52.334;20.890;2023-08-01T15:05:15;21.20;99.90
19359;DHT22;9815;52.334;20.890;2023-08-01T15:07:43;21.30;99.90
19359;DHT22;9815;52.334;20.890;2023-08-01T15:10:11;21.40;99.90
19359;DHT22;9815;52.334;20.890;2023-08-01T15:12:40;21.40;99.90
19359;DHT22;9815;52.334;20.890;2023-08-01T15:15:10;21.50;99.90
19359;DHT22;9815;52.334;20.890;2023-08-01T15:17:38;21.50;99.90
19359;DHT22;9815;52.334;20.890;2023-08-01T15:20:08;21.50;99.90
19359;DHT22;9815;52.334;20.890;2023-08-01T15:22:37;21.50;99.90
19359;DHT22;9815;52.334;20.890;2023-08-01T15:25:05;21.50;99.90
19359;DHT22;9815;52.334;20.890;2023-08-01T15:27:34;21.40;99.90
19359;DHT22;9815;52.334;20.890;2023-08-01T15:30:03;21.40;99.90
19359;DHT22;9815;52.334;20.890;2023-08-01T15:32:32;21.40;99.90
19359;DHT22;9815;52.334;20.890;2023-08-01T15:35:01;21.40;99.90
19359;DHT22;9815;52.334;20.890;2023-08-01T15:37:33;21.30;99.90
19359;DHT22;9815;52.334;20.890;2023-08-01T15:40:04;21.30;99.90
19359;DHT22;9815;52.334;20.890;2023-08-01T15:42:36;21.30;99.90
19359;DHT22;9815;52.334;20.890;2023-08-01T15:45:09;21.30;99.90